Airfield :
LOGIN :

Register | Disclaimer

   EN    FR    IT 

 










Legend :    VFR   Marginal VFR   IFR   Intensive IFR   Very Intensive IFR
Visi :
Ceiling :
>= 8 km
>= 3000ft
5 to 8 km
1000 to 3000 ft
1500m to 5 km
500 to 1000 ft
800 to 1500m
200 to 500 ft
< 800m
< 200 ft
Symbols :   Thunderstorms  Fog  Heavy snow  Heavy precipitations  Wind > 20 kt
SIGMETs :     Misc.  Thunderstorms  Icing  Turbulence  Mountain Waves  Volcanic Ashes






- Airport Elevation : 55 ft
- IATA code : DSA


EGCN - Robin Hood Doncaster Sheffield

CURRENT METAR :
  • 250350Z 19012KT CAVOK 10/07 Q1008

EXPIRED METARs :
  • 250320Z 19009KT CAVOK 10/07 Q1009
  • 250250Z 19008KT CAVOK 10/07 Q1008
  • 250220Z 20007KT CAVOK 09/07 Q1009
  • 250150Z 17005KT CAVOK 09/06 Q1009
  • 250120Z 18007KT CAVOK 08/06 Q1009

TAF TAF EGCN
Valid from the 25 at 00:00 until the 26 at 00:00 UTC


242257Z 2500/2524 VRB04KT 9999 FEW045
BECMG 2503/2506 21010KT
PROB30
TEMPO 2511/2514 8000 -RA -SHRA BKN014
BECMG 2512/2515 27017G27KT
PROB30
TEMPO 2514/2517 7000 SHRA
BECMG 2519/2522 26010KT



MET'MAP, your aeronautical weather chart ! - Copyright ORBIFLY December 2007 - Disclaimer

ORBIFLY MET'MAP TEAM :

Programming & Development : Alexandra Zaïnal
Original concept : Baudouin d'Aumeries
Technical & hardware support : Manuel Goepfert
Assistance : Marc-Olivier Méhu

Contact : metmap@orbifly.com




SOURCES & CREDITS :

   NOAA